KLAN/LAN METAR and TAF weather

Enter ICAO airport designator
Station Type Date Time Source
KLAN METAR 2021/05/10 01:53 UTC NOAA

KLAN 100153Z 00000KT 10SM OVC085 07/02 A2999 RMK AO2 SLP161 T00720017


Station Type Date Time Source
KLAN Decoded METAR 2021/05/10 01:53 UTC NOAA

CAPITAL CITY AIRPORT, MI, United States (KLAN) 42-47N 084-35W 264M
May 09, 2021 - 09:53 PM EDT / 2021.05.10 0153 UTC
Wind: Calm:0
Visibility: 10 mile(s):0
Sky conditions: overcast
Temperature: 45.0 F (7.2 C)
Dew Point: 35.1 F (1.7 C)
Relative Humidity: 68%
Pressure (altimeter): 29.99 in. Hg (1015 hPa)
ob: KLAN 100153Z 00000KT 10SM OVC085 07/02 A2999 RMK AO2 SLP161 T00720017
cycle: 2

Station Type Date Time Source
KLAN TAF 2021/05/09 18:33 UTC NOAA

KLAN 091730Z 0918/1018 09007KT P6SM VCSH OVC035
FM092100 06007KT P6SM OVC050
FM101200 31004KT P6SM BKN100

Example: see airport list